| Date | Time | Temp. (oF) | Dew Point (oF) | Rel. Hum. (%) | Press. (in.) | Wind Dir. | Wind Speed (mph) | Hourly Rainfall (in.) |
|
|---|---|---|---|---|---|---|---|---|---|
| 1 | 10/16 | 00:00 | 66 | 62 | 90 | 29.99 | S | 0 | 0.00 |
| 2 | 10/15 | 23:00 | 68 | 63 | 87 | 30.01 | SW | 0 | 0.00 |
| 3 | 10/15 | 22:00 | 66 | 61 | 86 | 30.01 | SSW | 0 | 0.00 |
| 4 | 10/15 | 21:00 | 67 | 61 | 83 | 30.00 | S | 0 | 0.00 |
| 5 | 10/15 | 20:00 | 68 | 61 | 80 | 30.01 | SSW | 0 | 0.00 |
| 6 | 10/15 | 19:00 | 72 | 60 | 68 | 29.99 | S | 0 | 0.00 |
| 7 | 10/15 | 18:00 | 76 | 60 | 59 | 29.99 | SSW | 0 | 0.00 |
| 8 | 10/15 | 17:00 | 78 | 59 | 54 | 29.99 | WSW | 3 | 0.00 |
| 9 | 10/15 | 16:00 | 78 | 58 | 51 | 30.01 | NNE | 0 | 0.00 |
| 10 | 10/15 | 15:00 | 78 | 56 | 48 | 30.02 | WNW | 3 | 0.00 |
| 11 | 10/15 | 14:00 | 77 | 57 | 52 | 30.05 | SW | 7 | 0.00 |
| 12 | 10/15 | 13:00 | 74 | 60 | 63 | 30.09 | WNW | 4 | 0.00 |
| 13 | 10/15 | 12:00 | 73 | 60 | 66 | 30.11 | NNW | 4 | 0.00 |
| 14 | 10/15 | 11:00 | 71 | 63 | 76 | 30.12 | NE | 0 | 0.00 |
| 15 | 10/15 | 10:00 | 67 | 61 | 82 | 30.14 | N | 4 | 0.00 |
| 16 | 10/15 | 09:00 | 64 | 62 | 95 | 30.13 | SSE | 0 | 0.00 |
| 17 | 10/15 | 08:00 | 59 | 58 | 98 | 30.12 | N | 0 | 0.00 |
| 18 | 10/15 | 07:00 | 60 | 58 | 95 | 30.10 | WNW | 0 | 0.00 |
| 19 | 10/15 | 06:00 | 62 | 59 | 91 | 30.09 | WNW | 0 | 0.00 |
| 20 | 10/15 | 05:00 | 64 | 61 | 90 | 30.07 | W | 0 | 0.00 |
| 21 | 10/15 | 04:00 | 63 | 59 | 88 | 30.06 | W | 0 | 0.00 |
| 22 | 10/15 | 03:00 | 64 | 60 | 89 | 30.07 | W | 0 | 0.00 |
| 23 | 10/15 | 02:00 | 66 | 61 | 86 | 30.07 | W | 0 | 0.00 |
| 24 | 10/15 | 01:00 | 67 | 61 | 82 | 30.07 | W | 0 | 0.00 |